createdAt,value
2019-03-23T00:02:15.958Z,79.70
2019-03-23T00:06:30.744Z,80.00
2019-03-23T00:10:34.294Z,80.20
2019-03-23T00:14:42.438Z,80.30
2019-03-23T00:18:50.581Z,80.30
2019-03-23T00:22:58.726Z,80.50
2019-03-23T00:27:06.871Z,80.70
2019-03-23T00:31:15.018Z,80.70
2019-03-23T00:35:23.157Z,80.90
2019-03-23T00:39:31.301Z,80.90
2019-03-23T00:43:39.437Z,81.10
2019-03-23T00:47:47.598Z,81.10
2019-03-23T00:51:55.794Z,80.80
2019-03-23T00:56:04.001Z,81.70
2019-03-23T01:00:12.332Z,81.90
2019-03-23T01:04:20.470Z,81.90
2019-03-23T01:08:28.618Z,82.10
2019-03-23T01:12:37.090Z,82.50
2019-03-23T01:16:45.618Z,82.50
2019-03-23T01:20:53.766Z,82.60
2019-03-23T01:25:01.910Z,82.70
2019-03-23T01:29:11.240Z,82.80
2019-03-23T01:33:20.574Z,82.90
2019-03-23T01:37:29.890Z,83.10
2019-03-23T01:41:38.302Z,83.30
2019-03-23T01:45:46.446Z,83.60
2019-03-23T01:49:54.581Z,83.80
2019-03-23T01:54:02.726Z,84.70
2019-03-23T01:58:10.859Z,84.60
2019-03-23T02:02:19.002Z,84.20
2019-03-23T02:06:27.137Z,84.10
2019-03-23T02:10:35.282Z,84.10
2019-03-23T02:14:43.426Z,84.20
2019-03-23T02:18:51.655Z,84.10
2019-03-23T02:22:59.794Z,84.20
2019-03-23T02:27:07.982Z,84.30
2019-03-23T02:31:16.135Z,84.50
2019-03-23T02:35:24.630Z,84.60
2019-03-23T02:39:32.770Z,84.80
2019-03-23T02:43:40.913Z,85.00
2019-03-23T02:47:49.049Z,85.50
2019-03-23T02:51:57.196Z,85.40
2019-03-23T02:56:05.342Z,85.40
2019-03-23T03:00:13.646Z,85.40
2019-03-23T03:04:22.147Z,85.50
2019-03-23T03:08:30.286Z,86.00
2019-03-23T03:12:38.440Z,86.70
2019-03-23T03:16:46.993Z,86.10
2019-03-23T03:20:55.136Z,86.00
2019-03-23T03:25:03.386Z,85.90
2019-03-23T03:29:11.523Z,86.20
2019-03-23T03:33:19.670Z,86.30
2019-03-23T03:37:27.810Z,86.40
2019-03-23T03:41:35.973Z,86.60
2019-03-23T03:45:44.103Z,86.80
2019-03-23T03:49:52.578Z,86.80
2019-03-23T03:54:00.719Z,87.10
2019-03-23T03:58:10.137Z,87.40
2019-03-23T04:02:18.275Z,87.30
2019-03-23T04:06:26.424Z,87.60
2019-03-23T04:10:34.555Z,87.60
2019-03-23T04:14:42.691Z,87.40
2019-03-23T04:18:50.842Z,87.30
2019-03-23T04:22:58.992Z,87.50
2019-03-23T04:27:07.136Z,87.50
2019-03-23T04:31:15.258Z,87.40
2019-03-23T04:35:23.735Z,87.60
2019-03-23T04:39:31.878Z,88.60
2019-03-23T04:43:40.027Z,87.80
2019-03-23T04:47:48.414Z,87.90
2019-03-23T04:51:56.574Z,88.10
2019-03-23T04:56:04.697Z,88.00
2019-03-23T05:00:13.451Z,87.90
2019-03-23T05:04:21.594Z,87.60
2019-03-23T05:08:33.642Z,88.40
2019-03-23T05:12:39.914Z,88.00
2019-03-23T05:16:49.226Z,89.00
2019-03-23T05:20:58.555Z,88.40
2019-03-23T05:25:10.963Z,88.50
2019-03-23T05:29:20.274Z,88.80
2019-03-23T05:33:29.606Z,88.80
2019-03-23T05:37:38.909Z,88.80
2019-03-23T05:41:48.547Z,88.80
2019-03-23T05:45:57.859Z,88.50
2019-03-23T05:50:07.422Z,88.70
2019-03-23T05:54:16.809Z,88.50
2019-03-23T05:58:26.429Z,88.30
2019-03-23T06:02:35.756Z,88.10
2019-03-23T06:06:45.066Z,87.80
2019-03-23T06:10:54.686Z,87.60
2019-03-23T06:15:04.245Z,87.40
2019-03-23T06:19:13.930Z,87.10
2019-03-23T06:23:23.527Z,86.50
2019-03-23T06:27:33.612Z,85.90
2019-03-23T06:31:43.822Z,85.00
2019-03-23T06:35:53.513Z,84.90
2019-03-23T06:40:02.907Z,84.70
2019-03-23T06:44:12.495Z,84.30
2019-03-23T06:48:21.891Z,83.60
2019-03-23T06:52:31.507Z,83.40
2019-03-23T06:56:40.819Z,83.00
2019-03-23T07:00:50.286Z,82.70
2019-03-23T07:04:59.614Z,82.30
2019-03-23T07:09:16.038Z,81.80
2019-03-23T07:13:20.367Z,81.60
2019-03-23T07:17:30.016Z,81.40
2019-03-23T07:21:39.870Z,81.60
2019-03-23T07:25:49.551Z,81.90
2019-03-23T07:29:59.165Z,82.10
2019-03-23T07:34:08.506Z,81.80
2019-03-23T07:38:18.066Z,81.60
2019-03-23T07:42:27.385Z,81.60
2019-03-23T07:46:36.703Z,81.30
2019-03-23T07:50:46.303Z,81.60
2019-03-23T07:54:55.618Z,81.60
2019-03-23T07:59:05.025Z,81.50
2019-03-23T08:03:14.366Z,81.30
2019-03-23T08:07:24.002Z,81.10
2019-03-23T08:11:33.298Z,81.00
2019-03-23T08:15:43.030Z,80.90
2019-03-23T08:19:52.763Z,82.00
2019-03-23T08:24:02.694Z,82.10
2019-03-23T08:28:12.383Z,82.80
2019-03-23T08:32:21.711Z,83.30
2019-03-23T08:36:31.026Z,83.30
2019-03-23T08:40:41.215Z,83.80
2019-03-23T08:44:50.521Z,84.30
2019-03-23T08:49:00.203Z,84.70
2019-03-23T08:53:13.602Z,84.50
2019-03-23T08:57:23.247Z,85.10
2019-03-23T09:01:32.558Z,85.50
2019-03-23T09:05:42.250Z,84.60
2019-03-23T09:09:59.030Z,84.00
2019-03-23T09:14:02.771Z,82.70
2019-03-23T09:18:12.382Z,81.60
2019-03-23T09:22:22.018Z,80.80
2019-03-23T09:26:31.974Z,79.40
2019-03-23T09:30:41.302Z,78.40
2019-03-23T09:34:50.626Z,77.30
2019-03-23T09:38:59.945Z,76.10
2019-03-23T09:43:09.254Z,75.60
2019-03-23T09:47:18.578Z,75.10
2019-03-23T09:51:29.343Z,74.10
2019-03-23T09:55:38.737Z,74.00
2019-03-23T09:59:48.065Z,72.70
2019-03-23T10:03:57.815Z,70.30
2019-03-23T10:08:07.135Z,70.00
2019-03-23T10:12:16.554Z,69.80
2019-03-23T10:16:25.869Z,69.20
2019-03-23T10:20:35.194Z,67.80
2019-03-23T10:24:44.500Z,66.10
2019-03-23T10:28:54.090Z,65.50
2019-03-23T10:33:03.807Z,65.50
2019-03-23T10:37:13.293Z,63.60
2019-03-23T10:41:22.614Z,64.00
2019-03-23T10:45:31.938Z,63.40
2019-03-23T10:49:41.247Z,62.10
2019-03-23T10:53:50.569Z,60.30
2019-03-23T10:57:59.889Z,59.30
2019-03-23T11:02:09.363Z,59.00
2019-03-23T11:06:19.352Z,57.70
2019-03-23T11:10:28.641Z,58.00
2019-03-23T11:14:37.958Z,58.20
2019-03-23T11:18:47.288Z,58.80
2019-03-23T11:22:56.613Z,57.10
2019-03-23T11:27:06.270Z,58.00
2019-03-23T11:31:15.593Z,58.30
2019-03-23T11:35:24.914Z,57.50
2019-03-23T11:39:34.505Z,56.80
2019-03-23T11:43:43.835Z,56.90
2019-03-23T11:47:53.159Z,57.30
2019-03-23T11:52:02.622Z,56.30
2019-03-23T11:56:12.210Z,56.00
2019-03-23T12:00:21.634Z,55.70
2019-03-23T12:04:30.950Z,56.30
2019-03-23T12:08:40.275Z,56.20
2019-03-23T12:12:49.666Z,55.70
2019-03-23T12:16:59.302Z,55.30
2019-03-23T12:21:09.081Z,54.80
2019-03-23T12:25:18.478Z,55.60
2019-03-23T12:29:27.950Z,55.40
2019-03-23T12:33:37.286Z,54.60
2019-03-23T12:37:46.686Z,55.00
2019-03-23T12:41:56.002Z,54.90
2019-03-23T12:46:05.394Z,55.10
2019-03-23T12:50:14.965Z,55.00
2019-03-23T12:54:24.366Z,55.40
2019-03-23T12:58:34.282Z,55.60
2019-03-23T13:02:44.026Z,56.20
2019-03-23T13:06:53.604Z,56.00
2019-03-23T13:11:03.050Z,56.20
2019-03-23T13:15:14.426Z,56.40
2019-03-23T13:19:23.750Z,56.50
2019-03-23T13:23:33.070Z,56.30
2019-03-23T13:27:42.417Z,56.70
2019-03-23T13:31:51.714Z,56.30
2019-03-23T13:36:01.052Z,55.30
2019-03-23T13:40:10.637Z,54.70
2019-03-23T13:44:20.071Z,53.70
2019-03-23T13:48:29.702Z,53.40
2019-03-23T13:52:39.565Z,53.30
2019-03-23T13:56:48.883Z,53.40
2019-03-23T14:00:58.565Z,52.90
2019-03-23T14:05:15.673Z,53.90
2019-03-23T14:09:19.066Z,52.70
2019-03-23T14:13:28.405Z,51.30
2019-03-23T14:17:37.726Z,50.40
2019-03-23T14:21:47.045Z,51.00
2019-03-23T14:25:56.378Z,51.50
2019-03-23T14:30:06.693Z,52.30
2019-03-23T14:34:16.017Z,52.60
2019-03-23T14:38:26.014Z,53.40
2019-03-23T14:42:35.814Z,53.40
2019-03-23T14:46:45.138Z,52.80
2019-03-23T14:50:54.474Z,53.40
2019-03-23T14:55:04.534Z,54.40
2019-03-23T14:59:14.285Z,54.80
2019-03-23T15:03:23.935Z,54.80
2019-03-23T15:07:33.269Z,54.80
2019-03-23T15:11:42.647Z,55.40
2019-03-23T15:15:52.275Z,55.80
2019-03-23T15:20:01.929Z,55.90
2019-03-23T15:24:11.786Z,56.30
2019-03-23T15:28:21.116Z,56.60
2019-03-23T15:32:30.518Z,57.00
2019-03-23T15:36:40.116Z,57.30
2019-03-23T15:40:49.775Z,57.40
2019-03-23T15:44:59.099Z,57.60
2019-03-23T15:49:08.838Z,57.90
2019-03-23T15:53:18.482Z,58.10
2019-03-23T15:57:27.802Z,57.90
2019-03-23T16:01:37.473Z,57.30
2019-03-23T16:05:46.801Z,57.30
2019-03-23T16:09:56.133Z,57.20
2019-03-23T16:14:05.781Z,57.60
2019-03-23T16:18:15.102Z,57.50
2019-03-23T16:22:24.797Z,57.70
2019-03-23T16:26:34.153Z,57.70
2019-03-23T16:30:43.471Z,58.00
2019-03-23T16:34:52.835Z,58.00
2019-03-23T16:39:02.438Z,58.30
2019-03-23T16:43:12.246Z,58.80
2019-03-23T16:47:21.562Z,59.10
2019-03-23T16:51:30.882Z,59.60
2019-03-23T16:55:40.209Z,60.20
2019-03-23T16:59:49.532Z,61.40
2019-03-23T17:03:58.853Z,62.50
2019-03-23T17:08:08.310Z,63.50
2019-03-23T17:12:17.994Z,64.00
2019-03-23T17:16:27.558Z,64.30
2019-03-23T17:20:37.026Z,64.40
2019-03-23T17:24:46.678Z,64.90
2019-03-23T17:28:56.870Z,65.50
2019-03-23T17:33:08.807Z,66.30
2019-03-23T17:37:17.631Z,67.00
2019-03-23T17:41:27.827Z,67.80
2019-03-23T17:45:37.298Z,68.70
2019-03-23T17:49:46.628Z,69.40
2019-03-23T17:53:58.843Z,70.10
2019-03-23T17:58:07.692Z,70.90
2019-03-23T18:02:17.010Z,71.20
2019-03-23T18:06:26.664Z,71.20
2019-03-23T18:10:36.809Z,72.10
2019-03-23T18:14:46.123Z,74.10
2019-03-23T18:18:55.437Z,75.00
2019-03-23T18:23:04.902Z,75.80
2019-03-23T18:27:14.724Z,76.30
2019-03-23T18:31:24.142Z,76.70
2019-03-23T18:35:33.601Z,76.70
2019-03-23T18:39:43.254Z,77.20
2019-03-23T18:43:52.566Z,77.60
2019-03-23T18:48:02.315Z,78.20
2019-03-23T18:52:11.915Z,78.20
2019-03-23T18:56:21.571Z,78.30
2019-03-23T19:00:35.558Z,78.70
2019-03-23T19:04:44.866Z,79.00
2019-03-23T19:08:55.174Z,79.30
2019-03-23T19:13:05.068Z,79.20
2019-03-23T19:17:14.838Z,79.30
2019-03-23T19:21:24.154Z,79.40
2019-03-23T19:25:33.930Z,79.70
2019-03-23T19:29:43.245Z,80.00
2019-03-23T19:33:53.264Z,80.60
2019-03-23T19:38:03.146Z,80.90
2019-03-23T19:42:13.150Z,81.10
2019-03-23T19:46:23.102Z,81.50
2019-03-23T19:50:32.413Z,82.00
2019-03-23T19:54:41.743Z,82.10
2019-03-23T19:58:52.063Z,82.20
2019-03-23T20:03:01.823Z,82.90
2019-03-23T20:07:11.132Z,83.60
2019-03-23T20:11:21.126Z,83.80
2019-03-23T20:15:30.997Z,83.90
2019-03-23T20:19:40.625Z,84.30
2019-03-23T20:23:51.277Z,84.60
2019-03-23T20:28:00.801Z,84.80
2019-03-23T20:32:10.203Z,84.90
2019-03-23T20:36:19.567Z,85.00
2019-03-23T20:40:28.922Z,85.00
2019-03-23T20:44:38.317Z,85.00
2019-03-23T20:48:47.737Z,85.20
2019-03-23T20:52:57.128Z,85.00
2019-03-23T20:57:06.452Z,85.10
2019-03-23T21:01:16.124Z,85.00
2019-03-23T21:05:33.765Z,85.10
2019-03-23T21:09:36.946Z,85.50
2019-03-23T21:13:46.919Z,86.20
2019-03-23T21:17:56.672Z,86.40
2019-03-23T21:22:06.068Z,86.50
2019-03-23T21:26:15.398Z,86.60
2019-03-23T21:30:24.801Z,86.90
2019-03-23T21:34:34.446Z,87.20
2019-03-23T21:38:44.111Z,87.60
2019-03-23T21:42:53.795Z,89.10
2019-03-23T21:47:03.111Z,89.40
2019-03-23T21:51:12.715Z,89.60
2019-03-23T21:55:22.118Z,89.60
2019-03-23T21:59:31.753Z,90.00
2019-03-23T22:03:41.154Z,90.20
2019-03-23T22:07:50.481Z,90.20
2019-03-23T22:11:59.800Z,90.10
2019-03-23T22:16:09.118Z,90.20
2019-03-23T22:20:18.438Z,90.30
2019-03-23T22:24:28.024Z,90.50
2019-03-23T22:28:37.347Z,90.60
2019-03-23T22:32:46.923Z,90.60
2019-03-23T22:36:56.280Z,90.60
2019-03-23T22:41:05.725Z,90.60
2019-03-23T22:45:15.220Z,90.60
2019-03-23T22:49:24.810Z,90.60
2019-03-23T22:53:34.521Z,90.50
2019-03-23T22:57:43.841Z,90.50
2019-03-23T23:01:53.563Z,90.50
2019-03-23T23:06:03.216Z,90.50
2019-03-23T23:10:12.898Z,90.80
2019-03-23T23:14:22.571Z,91.00
2019-03-23T23:18:32.164Z,91.10
2019-03-23T23:22:41.817Z,91.10
2019-03-23T23:26:51.482Z,91.20
2019-03-23T23:31:01.093Z,91.50
2019-03-23T23:35:11.653Z,91.60
2019-03-23T23:39:20.974Z,91.80
2019-03-23T23:43:30.438Z,91.90
2019-03-23T23:47:39.814Z,92.00
2019-03-23T23:51:50.338Z,92.10
2019-03-23T23:55:59.856Z,92.30
